sensor_id;sensor_type;location;lat;lon;timestamp;temperature;humidity
48912;DHT22;34722;52.108;5.044;2023-04-25T00:00:24;6.10;99.90
48912;DHT22;34722;52.108;5.044;2023-04-25T00:02:50;6.10;99.90
48912;DHT22;34722;52.108;5.044;2023-04-25T00:05:18;6.10;99.90
48912;DHT22;34722;52.108;5.044;2023-04-25T00:07:45;6.10;99.90
48912;DHT22;34722;52.108;5.044;2023-04-25T00:10:14;6.20;99.90
48912;DHT22;34722;52.108;5.044;2023-04-25T00:12:40;6.20;99.90
48912;DHT22;34722;52.108;5.044;2023-04-25T00:15:07;6.10;99.90
48912;DHT22;34722;52.108;5.044;2023-04-25T00:17:33;6.00;99.90
48912;DHT22;34722;52.108;5.044;2023-04-25T00:20:03;5.90;99.90
48912;DHT22;34722;52.108;5.044;2023-04-25T00:22:35;5.80;99.90
48912;DHT22;34722;52.108;5.044;2023-04-25T00:25:04;5.60;99.90
48912;DHT22;34722;52.108;5.044;2023-04-25T00:27:29;5.50;99.90
48912;DHT22;34722;52.108;5.044;2023-04-25T00:29:55;5.40;99.90
48912;DHT22;34722;52.108;5.044;2023-04-25T00:32:21;5.40;99.90
48912;DHT22;34722;52.108;5.044;2023-04-25T00:34:46;5.30;99.90
48912;DHT22;34722;52.108;5.044;2023-04-25T00:37:12;5.20;99.90
48912;DHT22;34722;52.108;5.044;2023-04-25T00:39:38;5.10;99.90
48912;DHT22;34722;52.108;5.044;2023-04-25T00:42:04;5.00;99.90
48912;DHT22;34722;52.108;5.044;2023-04-25T00:44:31;5.00;99.90
48912;DHT22;34722;52.108;5.044;2023-04-25T00:46:57;4.90;99.90
48912;DHT22;34722;52.108;5.044;2023-04-25T00:49:23;4.90;99.90
48912;DHT22;34722;52.108;5.044;2023-04-25T00:51:49;4.90;99.90
48912;DHT22;34722;52.108;5.044;2023-04-25T00:54:15;4.90;99.90
48912;DHT22;34722;52.108;5.044;2023-04-25T00:56:41;4.80;99.90
48912;DHT22;34722;52.108;5.044;2023-04-25T00:59:09;4.70;99.90
48912;DHT22;34722;52.108;5.044;2023-04-25T01:01:35;4.70;99.90
48912;DHT22;34722;52.108;5.044;2023-04-25T01:04:01;4.70;99.90
48912;DHT22;34722;52.108;5.044;2023-04-25T01:06:27;4.70;99.90
48912;DHT22;34722;52.108;5.044;2023-04-25T01:08:53;4.70;99.90
48912;DHT22;34722;52.108;5.044;2023-04-25T01:11:19;4.70;99.90
48912;DHT22;34722;52.108;5.044;2023-04-25T01:13:45;4.60;99.90
48912;DHT22;34722;52.108;5.044;2023-04-25T01:16:11;4.60;99.90
48912;DHT22;34722;52.108;5.044;2023-04-25T01:18:38;4.60;99.90
48912;DHT22;34722;52.108;5.044;2023-04-25T01:21:11;4.50;99.90
48912;DHT22;34722;52.108;5.044;2023-04-25T01:23:39;4.50;99.90
48912;DHT22;34722;52.108;5.044;2023-04-25T01:26:09;4.50;99.90
48912;DHT22;34722;52.108;5.044;2023-04-25T01:28:35;4.40;99.90
48912;DHT22;34722;52.108;5.044;2023-04-25T01:31:01;4.30;99.90
48912;DHT22;34722;52.108;5.044;2023-04-25T01:33:27;4.40;99.90
48912;DHT22;34722;52.108;5.044;2023-04-25T01:35:53;4.30;99.90
48912;DHT22;34722;52.108;5.044;2023-04-25T01:38:19;4.30;99.90
48912;DHT22;34722;52.108;5.044;2023-04-25T01:40:45;4.30;99.90
48912;DHT22;34722;52.108;5.044;2023-04-25T01:43:12;4.30;99.90
48912;DHT22;34722;52.108;5.044;2023-04-25T01:45:39;4.30;99.90
48912;DHT22;34722;52.108;5.044;2023-04-25T01:48:07;4.50;99.90
48912;DHT22;34722;52.108;5.044;2023-04-25T01:50:33;4.50;99.90
48912;DHT22;34722;52.108;5.044;2023-04-25T01:52:59;4.50;99.90
48912;DHT22;34722;52.108;5.044;2023-04-25T01:55:26;4.40;99.90
48912;DHT22;34722;52.108;5.044;2023-04-25T01:57:52;4.40;99.90
48912;DHT22;34722;52.108;5.044;2023-04-25T02:00:18;4.30;99.90
48912;DHT22;34722;52.108;5.044;2023-04-25T02:02:43;4.30;99.90
48912;DHT22;34722;52.108;5.044;2023-04-25T02:05:09;4.30;99.90
48912;DHT22;34722;52.108;5.044;2023-04-25T02:07:35;4.40;99.90
48912;DHT22;34722;52.108;5.044;2023-04-25T02:10:01;4.40;99.90
48912;DHT22;34722;52.108;5.044;2023-04-25T02:12:29;4.40;99.90
48912;DHT22;34722;52.108;5.044;2023-04-25T02:14:59;4.40;99.90
48912;DHT22;34722;52.108;5.044;2023-04-25T02:17:24;4.30;99.90
48912;DHT22;34722;52.108;5.044;2023-04-25T02:20:06;4.20;99.90
48912;DHT22;34722;52.108;5.044;2023-04-25T02:22:31;4.10;99.90
48912;DHT22;34722;52.108;5.044;2023-04-25T02:24:59;4.10;99.90
48912;DHT22;34722;52.108;5.044;2023-04-25T02:27:25;4.10;99.90
48912;DHT22;34722;52.108;5.044;2023-04-25T02:29:50;4.20;99.90
48912;DHT22;34722;52.108;5.044;2023-04-25T02:32:16;4.20;99.90
48912;DHT22;34722;52.108;5.044;2023-04-25T02:34:42;4.20;99.90
48912;DHT22;34722;52.108;5.044;2023-04-25T02:37:07;4.30;99.90
48912;DHT22;34722;52.108;5.044;2023-04-25T02:39:33;4.40;99.90
48912;DHT22;34722;52.108;5.044;2023-04-25T02:41:59;4.40;99.90
48912;DHT22;34722;52.108;5.044;2023-04-25T02:44:24;4.50;99.90
48912;DHT22;34722;52.108;5.044;2023-04-25T02:46:50;4.50;99.90
48912;DHT22;34722;52.108;5.044;2023-04-25T02:49:16;4.50;99.90
48912;DHT22;34722;52.108;5.044;2023-04-25T02:51:44;4.60;99.90
48912;DHT22;34722;52.108;5.044;2023-04-25T02:54:10;4.70;99.90
48912;DHT22;34722;52.108;5.044;2023-04-25T02:56:36;4.70;99.90
48912;DHT22;34722;52.108;5.044;2023-04-25T02:59:01;4.80;99.90
48912;DHT22;34722;52.108;5.044;2023-04-25T03:01:27;4.80;99.90
48912;DHT22;34722;52.108;5.044;2023-04-25T03:03:53;4.90;99.90
48912;DHT22;34722;52.108;5.044;2023-04-25T03:06:18;5.00;99.90
48912;DHT22;34722;52.108;5.044;2023-04-25T03:08:44;5.10;99.90
48912;DHT22;34722;52.108;5.044;2023-04-25T03:11:10;5.10;99.90
48912;DHT22;34722;52.108;5.044;2023-04-25T03:13:36;5.10;99.90
48912;DHT22;34722;52.108;5.044;2023-04-25T03:16:01;5.10;99.90
48912;DHT22;34722;52.108;5.044;2023-04-25T03:18:27;5.30;99.90
48912;DHT22;34722;52.108;5.044;2023-04-25T03:20:52;5.30;99.90
48912;DHT22;34722;52.108;5.044;2023-04-25T03:23:18;5.40;99.90
48912;DHT22;34722;52.108;5.044;2023-04-25T03:25:44;5.30;99.90
48912;DHT22;34722;52.108;5.044;2023-04-25T03:28:09;5.30;99.90
48912;DHT22;34722;52.108;5.044;2023-04-25T03:30:35;5.20;99.90
48912;DHT22;34722;52.108;5.044;2023-04-25T03:33:01;5.20;99.90
48912;DHT22;34722;52.108;5.044;2023-04-25T03:35:26;5.20;99.90
48912;DHT22;34722;52.108;5.044;2023-04-25T03:37:52;5.10;99.90
48912;DHT22;34722;52.108;5.044;2023-04-25T03:40:18;5.10;99.90
48912;DHT22;34722;52.108;5.044;2023-04-25T03:42:44;5.10;99.90
48912;DHT22;34722;52.108;5.044;2023-04-25T03:45:09;5.10;99.90
48912;DHT22;34722;52.108;5.044;2023-04-25T03:47:35;5.10;99.90
48912;DHT22;34722;52.108;5.044;2023-04-25T03:50:01;5.10;99.90
48912;DHT22;34722;52.108;5.044;2023-04-25T03:52:28;5.10;99.90
48912;DHT22;34722;52.108;5.044;2023-04-25T03:54:53;5.10;99.90
48912;DHT22;34722;52.108;5.044;2023-04-25T03:57:19;5.10;99.90
48912;DHT22;34722;52.108;5.044;2023-04-25T03:59:45;5.10;99.90
48912;DHT22;34722;52.108;5.044;2023-04-25T04:02:10;5.10;99.90
48912;DHT22;34722;52.108;5.044;2023-04-25T04:04:36;5.10;99.90
48912;DHT22;34722;52.108;5.044;2023-04-25T04:07:02;5.10;99.90
48912;DHT22;34722;52.108;5.044;2023-04-25T04:09:28;5.10;99.90
48912;DHT22;34722;52.108;5.044;2023-04-25T04:11:54;5.10;99.90
48912;DHT22;34722;52.108;5.044;2023-04-25T04:14:19;5.10;99.90
48912;DHT22;34722;52.108;5.044;2023-04-25T04:16:45;5.00;99.90
48912;DHT22;34722;52.108;5.044;2023-04-25T04:19:10;5.00;99.90
48912;DHT22;34722;52.108;5.044;2023-04-25T04:21:36;4.90;99.90
48912;DHT22;34722;52.108;5.044;2023-04-25T04:24:02;4.90;99.90
48912;DHT22;34722;52.108;5.044;2023-04-25T04:26:29;4.80;99.90
48912;DHT22;34722;52.108;5.044;2023-04-25T04:28:58;4.70;99.90
48912;DHT22;34722;52.108;5.044;2023-04-25T04:31:24;4.70;99.90
48912;DHT22;34722;52.108;5.044;2023-04-25T04:33:50;4.70;99.90
48912;DHT22;34722;52.108;5.044;2023-04-25T04:36:16;4.70;99.90
48912;DHT22;34722;52.108;5.044;2023-04-25T04:38:45;4.70;99.90
48912;DHT22;34722;52.108;5.044;2023-04-25T04:41:10;4.80;99.90
48912;DHT22;34722;52.108;5.044;2023-04-25T04:43:36;4.80;99.90
48912;DHT22;34722;52.108;5.044;2023-04-25T04:46:02;4.90;99.90
48912;DHT22;34722;52.108;5.044;2023-04-25T04:48:30;4.90;99.90
48912;DHT22;34722;52.108;5.044;2023-04-25T04:50:58;5.00;99.90
48912;DHT22;34722;52.108;5.044;2023-04-25T04:53:24;5.10;99.90
48912;DHT22;34722;52.108;5.044;2023-04-25T04:55:50;5.20;99.90
48912;DHT22;34722;52.108;5.044;2023-04-25T04:58:16;5.20;99.90
48912;DHT22;34722;52.108;5.044;2023-04-25T05:00:41;5.20;99.90
48912;DHT22;34722;52.108;5.044;2023-04-25T05:03:07;5.30;99.90
48912;DHT22;34722;52.108;5.044;2023-04-25T05:05:58;5.30;99.90
48912;DHT22;34722;52.108;5.044;2023-04-25T05:08:23;5.40;99.90
48912;DHT22;34722;52.108;5.044;2023-04-25T05:10:49;5.50;99.90
48912;DHT22;34722;52.108;5.044;2023-04-25T05:13:15;5.50;99.90
48912;DHT22;34722;52.108;5.044;2023-04-25T05:15:41;5.60;99.90
48912;DHT22;34722;52.108;5.044;2023-04-25T05:18:06;5.60;99.90
48912;DHT22;34722;52.108;5.044;2023-04-25T05:20:32;5.60;99.90
48912;DHT22;34722;52.108;5.044;2023-04-25T05:22:58;5.70;99.90
48912;DHT22;34722;52.108;5.044;2023-04-25T05:25:24;5.70;99.90
48912;DHT22;34722;52.108;5.044;2023-04-25T05:27:52;5.80;99.90
48912;DHT22;34722;52.108;5.044;2023-04-25T05:30:28;5.80;99.90
48912;DHT22;34722;52.108;5.044;2023-04-25T05:32:56;6.00;99.90
48912;DHT22;34722;52.108;5.044;2023-04-25T05:35:25;6.00;99.90
48912;DHT22;34722;52.108;5.044;2023-04-25T05:37:51;6.10;99.90
48912;DHT22;34722;52.108;5.044;2023-04-25T05:40:22;6.20;99.90
48912;DHT22;34722;52.108;5.044;2023-04-25T05:42:57;6.40;99.90
48912;DHT22;34722;52.108;5.044;2023-04-25T05:45:23;6.50;99.90
48912;DHT22;34722;52.108;5.044;2023-04-25T05:47:52;6.60;99.90
48912;DHT22;34722;52.108;5.044;2023-04-25T05:50:20;6.70;99.90
48912;DHT22;34722;52.108;5.044;2023-04-25T05:52:46;6.80;99.90
48912;DHT22;34722;52.108;5.044;2023-04-25T05:55:12;6.80;99.90
48912;DHT22;34722;52.108;5.044;2023-04-25T05:57:59;6.90;99.90
48912;DHT22;34722;52.108;5.044;2023-04-25T07:14:41;12.00;99.90
48912;DHT22;34722;52.108;5.044;2023-04-25T07:17:14;11.40;99.90
48912;DHT22;34722;52.108;5.044;2023-04-25T07:19:41;10.80;66.90
48912;DHT22;34722;52.108;5.044;2023-04-25T07:22:11;10.30;1.00
48912;DHT22;34722;52.108;5.044;2023-04-25T07:27:25;9.10;10.00
48912;DHT22;34722;52.108;5.044;2023-04-25T07:29:51;8.30;99.90
48912;DHT22;34722;52.108;5.044;2023-04-25T07:32:16;8.10;99.90
48912;DHT22;34722;52.108;5.044;2023-04-25T07:34:45;8.10;99.90
48912;DHT22;34722;52.108;5.044;2023-04-25T07:37:11;8.20;99.90
48912;DHT22;34722;52.108;5.044;2023-04-25T07:39:40;8.40;99.90
48912;DHT22;34722;52.108;5.044;2023-04-25T07:42:11;8.70;99.90
48912;DHT22;34722;52.108;5.044;2023-04-25T07:44:49;8.90;96.00
48912;DHT22;34722;52.108;5.044;2023-04-25T07:47:17;9.20;1.00
48912;DHT22;34722;52.108;5.044;2023-04-25T07:49:51;9.50;1.00
48912;DHT22;34722;52.108;5.044;2023-04-25T07:55:20;10.20;1.00
48912;DHT22;34722;52.108;5.044;2023-04-25T07:57:55;11.20;99.90
48912;DHT22;34722;52.108;5.044;2023-04-25T08:01:00;12.40;1.00
48912;DHT22;34722;52.108;5.044;2023-04-25T08:03:50;14.30;99.90
48912;DHT22;34722;52.108;5.044;2023-04-25T08:06:16;16.60;1.00
48912;DHT22;34722;52.108;5.044;2023-04-25T08:08:46;18.10;1.00
48912;DHT22;34722;52.108;5.044;2023-04-25T08:11:12;19.60;99.90
48912;DHT22;34722;52.108;5.044;2023-04-25T08:13:38;20.80;99.90
48912;DHT22;34722;52.108;5.044;2023-04-25T08:16:04;21.00;99.90
48912;DHT22;34722;52.108;5.044;2023-04-25T08:18:29;21.40;99.90
48912;DHT22;34722;52.108;5.044;2023-04-25T08:20:59;21.80;99.90
48912;DHT22;34722;52.108;5.044;2023-04-25T08:23:25;21.80;99.90
48912;DHT22;34722;52.108;5.044;2023-04-25T08:25:50;22.30;99.90
48912;DHT22;34722;52.108;5.044;2023-04-25T08:28:39;22.50;99.90
48912;DHT22;34722;52.108;5.044;2023-04-25T08:31:07;21.50;99.90
48912;DHT22;34722;52.108;5.044;2023-04-25T08:33:34;21.60;99.90
48912;DHT22;34722;52.108;5.044;2023-04-25T08:35:59;22.30;99.90
48912;DHT22;34722;52.108;5.044;2023-04-25T08:38:25;23.00;99.90
48912;DHT22;34722;52.108;5.044;2023-04-25T08:40:54;22.40;93.90
48912;DHT22;34722;52.108;5.044;2023-04-25T08:43:23;22.00;59.20
48912;DHT22;34722;52.108;5.044;2023-04-25T08:45:53;23.10;58.00
48912;DHT22;34722;52.108;5.044;2023-04-25T08:48:21;23.40;35.10
48912;DHT22;34722;52.108;5.044;2023-04-25T08:50:52;24.10;36.40
48912;DHT22;34722;52.108;5.044;2023-04-25T08:53:25;24.10;20.90
48912;DHT22;34722;52.108;5.044;2023-04-25T08:55:55;22.90;1.00
48912;DHT22;34722;52.108;5.044;2023-04-25T08:58:21;19.40;1.00
48912;DHT22;34722;52.108;5.044;2023-04-25T09:00:51;16.70;1.00
48912;DHT22;34722;52.108;5.044;2023-04-25T09:03:17;14.50;1.00
48912;DHT22;34722;52.108;5.044;2023-04-25T09:10:55;16.30;1.00
48912;DHT22;34722;52.108;5.044;2023-04-25T09:13:28;17.70;1.00
48912;DHT22;34722;52.108;5.044;2023-04-25T09:15:57;17.80;1.00
48912;DHT22;34722;52.108;5.044;2023-04-25T09:18:33;19.00;1.00
48912;DHT22;34722;52.108;5.044;2023-04-25T09:21:10;20.20;1.00
48912;DHT22;34722;52.108;5.044;2023-04-25T09:23:46;21.60;1.00
48912;DHT22;34722;52.108;5.044;2023-04-25T09:26:18;20.50;1.00
48912;DHT22;34722;52.108;5.044;2023-04-25T09:28:44;19.10;1.00
48912;DHT22;34722;52.108;5.044;2023-04-25T09:31:21;17.90;1.00
48912;DHT22;34722;52.108;5.044;2023-04-25T09:33:59;16.00;1.00
48912;DHT22;34722;52.108;5.044;2023-04-25T09:36:29;15.40;1.00
48912;DHT22;34722;52.108;5.044;2023-04-25T09:38:56;14.30;1.00
48912;DHT22;34722;52.108;5.044;2023-04-25T09:41:25;13.20;99.90
48912;DHT22;34722;52.108;5.044;2023-04-25T09:43:50;12.10;99.90
48912;DHT22;34722;52.108;5.044;2023-04-25T09:46:16;11.20;99.90
48912;DHT22;34722;52.108;5.044;2023-04-25T09:48:50;10.30;99.90
48912;DHT22;34722;52.108;5.044;2023-04-25T09:51:19;10.00;1.00
48912;DHT22;34722;52.108;5.044;2023-04-25T09:53:48;9.80;99.90
48912;DHT22;34722;52.108;5.044;2023-04-25T09:56:16;9.60;99.90
48912;DHT22;34722;52.108;5.044;2023-04-25T09:58:42;9.70;1.00
48912;DHT22;34722;52.108;5.044;2023-04-25T10:01:09;9.70;1.00
48912;DHT22;34722;52.108;5.044;2023-04-25T10:03:36;9.70;1.00
48912;DHT22;34722;52.108;5.044;2023-04-25T10:06:09;9.40;8.70
48912;DHT22;34722;52.108;5.044;2023-04-25T10:08:37;9.60;59.00
48912;DHT22;34722;52.108;5.044;2023-04-25T10:11:08;10.00;99.90
48912;DHT22;34722;52.108;5.044;2023-04-25T10:13:40;10.70;38.70
48912;DHT22;34722;52.108;5.044;2023-04-25T10:16:07;11.00;1.00
48912;DHT22;34722;52.108;5.044;2023-04-25T10:18:33;11.30;1.00
48912;DHT22;34722;52.108;5.044;2023-04-25T10:21:03;11.90;1.00
48912;DHT22;34722;52.108;5.044;2023-04-25T10:23:30;12.20;1.00
48912;DHT22;34722;52.108;5.044;2023-04-25T10:25:57;12.90;99.90
48912;DHT22;34722;52.108;5.044;2023-04-25T10:28:24;13.60;99.90
48912;DHT22;34722;52.108;5.044;2023-04-25T10:31:07;14.30;99.90
48912;DHT22;34722;52.108;5.044;2023-04-25T10:33:37;16.60;99.90
48912;DHT22;34722;52.108;5.044;2023-04-25T10:36:17;17.90;99.90
48912;DHT22;34722;52.108;5.044;2023-04-25T10:38:45;18.60;99.90
48912;DHT22;34722;52.108;5.044;2023-04-25T10:41:11;19.00;99.90
48912;DHT22;34722;52.108;5.044;2023-04-25T10:43:48;20.00;99.90
48912;DHT22;34722;52.108;5.044;2023-04-25T10:46:25;21.20;99.90
48912;DHT22;34722;52.108;5.044;2023-04-25T10:48:59;21.80;92.10
48912;DHT22;34722;52.108;5.044;2023-04-25T10:51:34;19.20;38.60
48912;DHT22;34722;52.108;5.044;2023-04-25T10:54:05;17.20;23.90
48912;DHT22;34722;52.108;5.044;2023-04-25T10:56:42;16.10;25.90
48912;DHT22;34722;52.108;5.044;2023-04-25T10:59:13;14.90;14.60
48912;DHT22;34722;52.108;5.044;2023-04-25T11:01:40;14.90;27.80
48912;DHT22;34722;52.108;5.044;2023-04-25T11:09:37;18.00;48.50
48912;DHT22;34722;52.108;5.044;2023-04-25T11:12:03;18.80;41.40
48912;DHT22;34722;52.108;5.044;2023-04-25T11:14:30;18.40;34.00
48912;DHT22;34722;52.108;5.044;2023-04-25T11:16:57;19.10;34.00
48912;DHT22;34722;52.108;5.044;2023-04-25T11:19:24;18.80;26.80
48912;DHT22;34722;52.108;5.044;2023-04-25T11:21:50;19.60;29.80
48912;DHT22;34722;52.108;5.044;2023-04-25T11:24:20;19.20;15.70
48912;DHT22;34722;52.108;5.044;2023-04-25T11:26:50;18.30;11.90
48912;DHT22;34722;52.108;5.044;2023-04-25T11:29:16;17.20;1.00
48912;DHT22;34722;52.108;5.044;2023-04-25T11:31:44;16.20;1.00
48912;DHT22;34722;52.108;5.044;2023-04-25T11:34:17;16.40;1.00
48912;DHT22;34722;52.108;5.044;2023-04-25T11:36:45;16.90;1.00
48912;DHT22;34722;52.108;5.044;2023-04-25T11:39:10;16.00;1.00
48912;DHT22;34722;52.108;5.044;2023-04-25T11:41:37;15.00;1.00
48912;DHT22;34722;52.108;5.044;2023-04-25T11:44:03;14.20;1.00
48912;DHT22;34722;52.108;5.044;2023-04-25T11:46:29;13.50;6.20
48912;DHT22;34722;52.108;5.044;2023-04-25T11:48:56;12.70;27.90
48912;DHT22;34722;52.108;5.044;2023-04-25T11:51:22;11.80;71.60
48912;DHT22;34722;52.108;5.044;2023-04-25T11:53:48;11.30;99.90
48912;DHT22;34722;52.108;5.044;2023-04-25T11:56:14;10.40;99.90
48912;DHT22;34722;52.108;5.044;2023-04-25T11:59:00;10.10;99.90
48912;DHT22;34722;52.108;5.044;2023-04-25T12:01:49;9.70;99.90
48912;DHT22;34722;52.108;5.044;2023-04-25T12:04:22;9.50;1.00
48912;DHT22;34722;52.108;5.044;2023-04-25T12:06:52;9.50;1.00
48912;DHT22;34722;52.108;5.044;2023-04-25T12:09:30;9.60;99.90
48912;DHT22;34722;52.108;5.044;2023-04-25T12:11:58;10.30;99.90
48912;DHT22;34722;52.108;5.044;2023-04-25T12:14:26;10.90;28.50
48912;DHT22;34722;52.108;5.044;2023-04-25T12:16:58;10.90;99.90
48912;DHT22;34722;52.108;5.044;2023-04-25T12:19:24;11.30;1.00
48912;DHT22;34722;52.108;5.044;2023-04-25T12:21:53;13.30;99.90
48912;DHT22;34722;52.108;5.044;2023-04-25T12:24:23;15.30;99.90
48912;DHT22;34722;52.108;5.044;2023-04-25T12:27:05;16.70;99.90
48912;DHT22;34722;52.108;5.044;2023-04-25T12:29:32;18.20;99.90
48912;DHT22;34722;52.108;5.044;2023-04-25T12:31:58;17.50;99.90
48912;DHT22;34722;52.108;5.044;2023-04-25T12:34:25;15.90;99.90
48912;DHT22;34722;52.108;5.044;2023-04-25T12:36:51;14.30;99.90
48912;DHT22;34722;52.108;5.044;2023-04-25T12:39:23;13.30;99.90
48912;DHT22;34722;52.108;5.044;2023-04-25T12:41:49;13.10;99.90
48912;DHT22;34722;52.108;5.044;2023-04-25T12:44:17;13.60;99.90
48912;DHT22;34722;52.108;5.044;2023-04-25T12:46:43;13.40;99.90
48912;DHT22;34722;52.108;5.044;2023-04-25T12:49:09;13.00;99.90
48912;DHT22;34722;52.108;5.044;2023-04-25T12:51:35;13.00;99.90
48912;DHT22;34722;52.108;5.044;2023-04-25T12:54:02;13.30;99.90
48912;DHT22;34722;52.108;5.044;2023-04-25T12:56:28;13.50;99.90
48912;DHT22;34722;52.108;5.044;2023-04-25T12:58:54;13.80;99.90
48912;DHT22;34722;52.108;5.044;2023-04-25T13:01:21;13.90;99.90
48912;DHT22;34722;52.108;5.044;2023-04-25T13:03:47;13.70;99.90
48912;DHT22;34722;52.108;5.044;2023-04-25T13:06:13;13.70;99.90
48912;DHT22;34722;52.108;5.044;2023-04-25T13:08:39;13.80;99.90
48912;DHT22;34722;52.108;5.044;2023-04-25T13:30:01;12.20;94.90
48912;DHT22;34722;52.108;5.044;2023-04-25T13:32:30;12.00;95.80
48912;DHT22;34722;52.108;5.044;2023-04-25T13:34:56;12.20;99.90
48912;DHT22;34722;52.108;5.044;2023-04-25T13:37:21;12.10;99.90
48912;DHT22;34722;52.108;5.044;2023-04-25T13:39:49;12.40;99.90
48912;DHT22;34722;52.108;5.044;2023-04-25T13:42:15;12.60;99.90
48912;DHT22;34722;52.108;5.044;2023-04-25T13:44:41;12.80;99.90
48912;DHT22;34722;52.108;5.044;2023-04-25T13:47:07;12.60;99.90
48912;DHT22;34722;52.108;5.044;2023-04-25T13:49:32;12.20;99.90
48912;DHT22;34722;52.108;5.044;2023-04-25T13:51:58;11.80;99.90
48912;DHT22;34722;52.108;5.044;2023-04-25T13:54:23;11.60;99.90
48912;DHT22;34722;52.108;5.044;2023-04-25T13:56:49;11.30;99.90
48912;DHT22;34722;52.108;5.044;2023-04-25T13:59:15;11.40;1.00
48912;DHT22;34722;52.108;5.044;2023-04-25T14:01:41;11.60;1.00
48912;DHT22;34722;52.108;5.044;2023-04-25T14:04:07;11.90;1.00
48912;DHT22;34722;52.108;5.044;2023-04-25T14:06:32;12.00;1.00
48912;DHT22;34722;52.108;5.044;2023-04-25T14:08:58;11.90;99.90
48912;DHT22;34722;52.108;5.044;2023-04-25T14:11:32;11.90;1.00
48912;DHT22;34722;52.108;5.044;2023-04-25T14:13:58;11.60;99.90
48912;DHT22;34722;52.108;5.044;2023-04-25T14:16:24;11.70;99.90
48912;DHT22;34722;52.108;5.044;2023-04-25T14:18:50;11.40;99.90
48912;DHT22;34722;52.108;5.044;2023-04-25T14:21:15;11.20;1.00
48912;DHT22;34722;52.108;5.044;2023-04-25T14:23:41;11.00;91.10
48912;DHT22;34722;52.108;5.044;2023-04-25T14:26:06;10.50;44.80
48912;DHT22;34722;52.108;5.044;2023-04-25T14:28:32;10.60;99.90
48912;DHT22;34722;52.108;5.044;2023-04-25T14:30:58;11.00;1.00
48912;DHT22;34722;52.108;5.044;2023-04-25T14:33:24;11.30;99.90
48912;DHT22;34722;52.108;5.044;2023-04-25T14:35:50;11.10;32.40
48912;DHT22;34722;52.108;5.044;2023-04-25T14:38:16;11.20;1.00
48912;DHT22;34722;52.108;5.044;2023-04-25T14:40:41;11.40;1.00
48912;DHT22;34722;52.108;5.044;2023-04-25T14:43:07;11.40;1.00
48912;DHT22;34722;52.108;5.044;2023-04-25T14:45:33;11.90;1.00
48912;DHT22;34722;52.108;5.044;2023-04-25T14:47:59;11.80;99.90
48912;DHT22;34722;52.108;5.044;2023-04-25T14:50:24;11.90;99.90
48912;DHT22;34722;52.108;5.044;2023-04-25T14:52:50;11.90;99.90
48912;DHT22;34722;52.108;5.044;2023-04-25T14:55:23;12.10;99.90
48912;DHT22;34722;52.108;5.044;2023-04-25T14:57:53;12.00;99.90
48912;DHT22;34722;52.108;5.044;2023-04-25T15:00:19;11.90;99.90
48912;DHT22;34722;52.108;5.044;2023-04-25T15:02:49;12.00;99.90
48912;DHT22;34722;52.108;5.044;2023-04-25T15:05:16;12.00;99.90
48912;DHT22;34722;52.108;5.044;2023-04-25T15:07:43;12.10;99.90
48912;DHT22;34722;52.108;5.044;2023-04-25T15:10:10;12.30;99.90
48912;DHT22;34722;52.108;5.044;2023-04-25T15:12:41;12.30;99.90
48912;DHT22;34722;52.108;5.044;2023-04-25T15:15:08;12.10;99.90
48912;DHT22;34722;52.108;5.044;2023-04-25T15:17:44;11.90;99.90
48912;DHT22;34722;52.108;5.044;2023-04-25T15:20:11;11.60;99.90
48912;DHT22;34722;52.108;5.044;2023-04-25T15:22:43;11.30;99.90
48912;DHT22;34722;52.108;5.044;2023-04-25T15:25:10;10.90;99.90
48912;DHT22;34722;52.108;5.044;2023-04-25T15:27:39;10.80;99.90
48912;DHT22;34722;52.108;5.044;2023-04-25T15:30:11;10.50;99.90
48912;DHT22;34722;52.108;5.044;2023-04-25T15:32:39;10.40;99.90
48912;DHT22;34722;52.108;5.044;2023-04-25T15:35:06;10.40;99.90
48912;DHT22;34722;52.108;5.044;2023-04-25T15:37:35;10.40;99.90
48912;DHT22;34722;52.108;5.044;2023-04-25T15:40:09;10.60;1.00
48912;DHT22;34722;52.108;5.044;2023-04-25T15:42:41;10.80;1.00
48912;DHT22;34722;52.108;5.044;2023-04-25T15:45:10;10.80;1.00
48912;DHT22;34722;52.108;5.044;2023-04-25T15:47:37;10.60;1.00
48912;DHT22;34722;52.108;5.044;2023-04-25T15:50:05;10.30;1.00
48912;DHT22;34722;52.108;5.044;2023-04-25T15:52:33;10.30;1.00
48912;DHT22;34722;52.108;5.044;2023-04-25T15:54:59;10.20;1.00
48912;DHT22;34722;52.108;5.044;2023-04-25T15:57:26;10.30;1.00
48912;DHT22;34722;52.108;5.044;2023-04-25T15:59:51;10.30;1.00
48912;DHT22;34722;52.108;5.044;2023-04-25T16:02:17;9.90;99.90
48912;DHT22;34722;52.108;5.044;2023-04-25T16:04:44;9.80;99.90
48912;DHT22;34722;52.108;5.044;2023-04-25T16:07:10;9.70;99.90
48912;DHT22;34722;52.108;5.044;2023-04-25T16:09:36;9.70;99.90
48912;DHT22;34722;52.108;5.044;2023-04-25T16:12:02;10.00;99.90
48912;DHT22;34722;52.108;5.044;2023-04-25T16:14:28;10.30;99.90
48912;DHT22;34722;52.108;5.044;2023-04-25T16:16:55;10.60;99.90
48912;DHT22;34722;52.108;5.044;2023-04-25T16:19:20;10.70;99.90
48912;DHT22;34722;52.108;5.044;2023-04-25T16:21:46;10.60;99.90
48912;DHT22;34722;52.108;5.044;2023-04-25T16:24:12;10.30;99.90
48912;DHT22;34722;52.108;5.044;2023-04-25T16:26:37;10.20;99.90
48912;DHT22;34722;52.108;5.044;2023-04-25T16:29:06;10.10;99.90
48912;DHT22;34722;52.108;5.044;2023-04-25T16:31:35;10.20;99.90
48912;DHT22;34722;52.108;5.044;2023-04-25T16:34:03;10.30;99.90
48912;DHT22;34722;52.108;5.044;2023-04-25T16:36:29;10.20;99.90
48912;DHT22;34722;52.108;5.044;2023-04-25T16:38:57;10.40;99.90
48912;DHT22;34722;52.108;5.044;2023-04-25T16:41:25;10.20;99.90
48912;DHT22;34722;52.108;5.044;2023-04-25T16:43:52;10.10;99.90
48912;DHT22;34722;52.108;5.044;2023-04-25T16:46:17;10.00;99.90
48912;DHT22;34722;52.108;5.044;2023-04-25T16:48:44;10.00;99.90
48912;DHT22;34722;52.108;5.044;2023-04-25T16:51:10;10.10;99.90
48912;DHT22;34722;52.108;5.044;2023-04-25T16:53:36;10.10;99.90
48912;DHT22;34722;52.108;5.044;2023-04-25T16:56:02;10.00;99.90
48912;DHT22;34722;52.108;5.044;2023-04-25T16:58:28;9.70;99.90
48912;DHT22;34722;52.108;5.044;2023-04-25T17:00:54;9.60;99.90
48912;DHT22;34722;52.108;5.044;2023-04-25T17:03:20;9.60;99.90
48912;DHT22;34722;52.108;5.044;2023-04-25T17:05:49;9.90;99.90
48912;DHT22;34722;52.108;5.044;2023-04-25T17:08:15;10.00;99.90
48912;DHT22;34722;52.108;5.044;2023-04-25T17:10:40;10.00;99.90
48912;DHT22;34722;52.108;5.044;2023-04-25T17:13:06;9.90;99.90
48912;DHT22;34722;52.108;5.044;2023-04-25T17:15:32;9.80;99.90
48912;DHT22;34722;52.108;5.044;2023-04-25T17:17:58;9.70;99.90
48912;DHT22;34722;52.108;5.044;2023-04-25T17:20:25;9.60;1.00
48912;DHT22;34722;52.108;5.044;2023-04-25T17:22:53;9.50;1.00
48912;DHT22;34722;52.108;5.044;2023-04-25T17:25:21;9.50;1.00
48912;DHT22;34722;52.108;5.044;2023-04-25T17:27:46;9.50;1.00
48912;DHT22;34722;52.108;5.044;2023-04-25T17:30:12;9.50;1.00
48912;DHT22;34722;52.108;5.044;2023-04-25T17:32:38;9.40;1.00